createdAt,value
2017-03-28T00:00:23.060Z,10.59
2017-03-28T00:01:37.655Z,10.61
2017-03-28T00:02:52.719Z,10.55
2017-03-28T00:04:06.874Z,10.51
2017-03-28T00:05:21.214Z,10.49
2017-03-28T00:06:35.410Z,10.43
2017-03-28T00:07:49.536Z,10.53
2017-03-28T00:09:04.349Z,10.46
2017-03-28T00:10:19.441Z,10.42
2017-03-28T00:11:34.364Z,10.51
2017-03-28T00:12:48.806Z,10.45
2017-03-28T00:14:03.309Z,10.53
2017-03-28T00:15:18.560Z,10.34
2017-03-28T00:16:33.079Z,10.39
2017-03-28T00:17:47.088Z,10.39
2017-03-28T00:19:02.016Z,10.28
2017-03-28T00:20:16.023Z,10.25
2017-03-28T00:21:31.556Z,10.33
2017-03-28T00:22:47.486Z,10.3
2017-03-28T00:24:07.941Z,10.24
2017-03-28T00:25:24.501Z,10.34
2017-03-28T00:26:39.892Z,10.23
2017-03-28T00:27:57.214Z,10.27
2017-03-28T00:29:14.344Z,10.24
2017-03-28T00:30:29.001Z,10.24
2017-03-28T00:31:44.087Z,10.18
2017-03-28T00:32:59.451Z,10.1
2017-03-28T00:34:14.597Z,10.12
2017-03-28T00:35:29.517Z,10.24
2017-03-28T00:36:44.635Z,10.03
2017-03-28T00:37:59.497Z,10.13
2017-03-28T00:39:13.997Z,10.02
2017-03-28T00:40:28.547Z,10.07
2017-03-28T00:41:42.739Z,10.07
2017-03-28T00:42:57.146Z,10.03
2017-03-28T00:44:12.037Z,10.07
2017-03-28T00:45:26.392Z,10.09
2017-03-28T00:46:40.818Z,10.03
2017-03-28T00:47:54.806Z,10.02
2017-03-28T00:49:08.911Z,10.02
2017-03-28T00:50:22.871Z,10.03
2017-03-28T00:51:36.965Z,9.99
2017-03-28T00:52:51.201Z,9.97
2017-03-28T00:54:05.364Z,9.91
2017-03-28T00:55:19.321Z,9.87
2017-03-28T00:56:34.020Z,9.82
2017-03-28T00:57:47.978Z,9.85
2017-03-28T00:59:02.417Z,9.85
2017-03-28T01:00:18.604Z,9.88
2017-03-28T01:01:32.698Z,9.82
2017-03-28T01:02:46.775Z,9.77
2017-03-28T01:04:00.916Z,9.84
2017-03-28T01:05:15.152Z,9.84
2017-03-28T01:06:29.351Z,9.74
2017-03-28T01:07:43.665Z,9.85
2017-03-28T01:08:57.870Z,9.82
2017-03-28T01:10:11.809Z,9.82
2017-03-28T01:11:26.615Z,9.82
2017-03-28T01:12:40.551Z,9.77
2017-03-28T01:13:54.696Z,9.63
2017-03-28T01:15:09.120Z,9.69
2017-03-28T01:16:23.551Z,9.58
2017-03-28T01:17:37.795Z,9.51
2017-03-28T01:18:51.921Z,9.55
2017-03-28T01:20:06.246Z,9.56
2017-03-28T01:21:20.325Z,9.56
2017-03-28T01:22:34.313Z,9.47
2017-03-28T01:23:49.080Z,9.49
2017-03-28T01:25:03.051Z,9.45
2017-03-28T01:26:17.139Z,9.44
2017-03-28T01:27:31.080Z,9.44
2017-03-28T01:28:45.303Z,9.36
2017-03-28T01:29:59.944Z,9.39
2017-03-28T01:31:14.390Z,9.4
2017-03-28T01:32:28.347Z,9.45
2017-03-28T01:33:42.457Z,9.37
2017-03-28T01:34:57.243Z,9.33
2017-03-28T01:36:11.632Z,9.36
2017-03-28T01:37:26.001Z,9.34
2017-03-28T01:38:40.256Z,9.36
2017-03-28T01:39:54.516Z,9.33
2017-03-28T01:41:08.681Z,9.33
2017-03-28T01:42:22.918Z,9.34
2017-03-28T01:43:37.018Z,9.24
2017-03-28T01:44:50.980Z,9.29
2017-03-28T01:46:05.836Z,9.22
2017-03-28T01:47:19.769Z,9.3
2017-03-28T01:48:34.181Z,9.27
2017-03-28T01:49:48.120Z,9.19
2017-03-28T01:51:02.268Z,9.22
2017-03-28T01:52:16.536Z,9.18
2017-03-28T01:53:30.638Z,9.19
2017-03-28T01:54:44.874Z,9.21
2017-03-28T01:55:59.433Z,9.13
2017-03-28T01:57:13.360Z,9.22
2017-03-28T01:58:27.467Z,9.15
2017-03-28T02:04:24.499Z,9.29
2017-03-28T02:05:38.798Z,9.22
2017-03-28T02:06:52.883Z,9.24
2017-03-28T02:08:07.551Z,9.18
2017-03-28T02:09:22.413Z,9.19
2017-03-28T02:10:36.369Z,9.19
2017-03-28T02:11:51.100Z,9.21
2017-03-28T02:13:05.515Z,9.19
2017-03-28T02:14:19.695Z,9.16
2017-03-28T02:15:34.004Z,9.13
2017-03-28T02:16:48.098Z,9.09
2017-03-28T02:18:03.262Z,9.19
2017-03-28T02:19:17.436Z,9.13
2017-03-28T02:20:34.349Z,9.09
2017-03-28T02:21:48.466Z,9.18
2017-03-28T02:23:02.408Z,9.09
2017-03-28T02:24:16.873Z,9.11
2017-03-28T02:25:30.923Z,9.03
2017-03-28T02:26:45.018Z,9.02
2017-03-28T02:28:05.198Z,9.05
2017-03-28T02:29:19.313Z,9.02
2017-03-28T02:30:33.918Z,9.05
2017-03-28T02:31:48.211Z,9.03
2017-03-28T02:33:02.137Z,9.03
2017-03-28T02:34:16.220Z,9.13
2017-03-28T02:35:30.586Z,8.99
2017-03-28T02:36:45.728Z,9.02
2017-03-28T02:38:00.138Z,8.96
2017-03-28T02:39:14.223Z,8.99
2017-03-28T02:40:28.554Z,8.87
2017-03-28T02:41:42.643Z,8.9
2017-03-28T02:42:57.581Z,8.87
2017-03-28T02:44:11.707Z,8.92
2017-03-28T02:45:26.063Z,8.92
2017-03-28T02:46:40.153Z,8.95
2017-03-28T02:47:54.093Z,8.97
2017-03-28T02:49:08.514Z,8.92
2017-03-28T02:50:22.574Z,8.95
2017-03-28T02:51:36.778Z,8.95
2017-03-28T02:52:51.093Z,8.95
2017-03-28T02:54:05.194Z,8.81
2017-03-28T02:55:19.435Z,8.82
2017-03-28T02:56:34.067Z,8.93
2017-03-28T02:57:47.993Z,8.92
2017-03-28T02:59:02.446Z,8.9
2017-03-28T03:00:17.079Z,8.92
2017-03-28T03:01:31.507Z,8.86
2017-03-28T03:02:45.578Z,8.86
2017-03-28T03:03:59.686Z,8.82
2017-03-28T03:05:13.721Z,8.84
2017-03-28T03:06:27.863Z,8.77
2017-03-28T03:07:42.114Z,8.77
2017-03-28T03:08:56.568Z,8.68
2017-03-28T03:10:10.548Z,8.66
2017-03-28T03:11:24.688Z,8.6
2017-03-28T03:12:38.964Z,8.6
2017-03-28T03:13:53.426Z,8.53
2017-03-28T03:15:07.355Z,8.54
2017-03-28T03:16:21.535Z,8.56
2017-03-28T03:17:35.648Z,8.46
2017-03-28T03:18:49.765Z,8.45
2017-03-28T03:20:04.345Z,8.38
2017-03-28T03:21:18.510Z,8.34
2017-03-28T03:22:32.986Z,8.39
2017-03-28T03:23:47.138Z,8.31
2017-03-28T03:25:01.118Z,8.31
2017-03-28T03:26:15.472Z,8.35
2017-03-28T03:27:29.466Z,8.34
2017-03-28T03:28:43.562Z,8.31
2017-03-28T03:29:57.749Z,8.24
2017-03-28T03:31:11.844Z,8.24
2017-03-28T03:32:26.134Z,8.26
2017-03-28T03:33:40.235Z,8.24
2017-03-28T03:34:54.178Z,8.28
2017-03-28T03:36:08.451Z,8.28
2017-03-28T03:37:25.046Z,8.18
2017-03-28T03:38:39.464Z,8.23
2017-03-28T03:39:53.388Z,8.2
2017-03-28T03:41:07.458Z,8.09
2017-03-28T03:42:21.750Z,8.09
2017-03-28T03:43:35.882Z,8.13
2017-03-28T03:44:50.234Z,8.09
2017-03-28T03:46:04.319Z,8.09
2017-03-28T03:47:18.244Z,7.99
2017-03-28T03:48:32.496Z,8.06
2017-03-28T03:49:46.443Z,7.96
2017-03-28T03:51:00.871Z,7.99
2017-03-28T03:52:15.195Z,7.95
2017-03-28T03:53:29.676Z,7.93
2017-03-28T03:54:43.704Z,7.84
2017-03-28T03:56:15.269Z,7.77
2017-03-28T03:57:29.308Z,7.69
2017-03-28T03:58:43.289Z,7.66
2017-03-28T03:59:57.819Z,7.72
2017-03-28T04:01:12.096Z,7.55
2017-03-28T04:02:40.622Z,7.39
2017-03-28T04:03:54.629Z,7.4
2017-03-28T04:05:09.534Z,7.41
2017-03-28T04:06:24.399Z,7.37
2017-03-28T04:07:38.859Z,7.5
2017-03-28T04:08:52.849Z,7.58
2017-03-28T04:10:07.720Z,7.58
2017-03-28T04:11:21.657Z,7.64
2017-03-28T04:12:36.107Z,7.72
2017-03-28T04:13:50.477Z,7.69
2017-03-28T04:15:04.938Z,7.77
2017-03-28T04:16:19.791Z,7.8
2017-03-28T04:17:34.444Z,7.87
2017-03-28T04:18:48.750Z,7.87
2017-03-28T04:20:03.691Z,7.84
2017-03-28T04:21:18.433Z,7.84
2017-03-28T04:22:32.956Z,7.83
2017-03-28T04:23:47.012Z,7.84
2017-03-28T04:25:01.151Z,7.83
2017-03-28T04:26:15.468Z,7.77
2017-03-28T04:27:29.557Z,7.83
2017-03-28T04:28:44.146Z,7.84
2017-03-28T04:29:58.393Z,7.74
2017-03-28T04:31:12.328Z,7.78
2017-03-28T04:32:26.419Z,7.75
2017-03-28T04:33:40.707Z,7.74
2017-03-28T04:34:55.147Z,7.69
2017-03-28T04:36:09.125Z,7.69
2017-03-28T04:37:23.592Z,7.72
2017-03-28T04:38:37.543Z,7.69
2017-03-28T04:39:52.727Z,7.74
2017-03-28T04:41:06.991Z,7.66
2017-03-28T04:42:38.231Z,7.74
2017-03-28T04:43:52.289Z,7.64
2017-03-28T04:45:06.658Z,7.64
2017-03-28T04:46:20.801Z,7.62
2017-03-28T04:47:35.429Z,7.51
2017-03-28T04:48:49.520Z,7.56
2017-03-28T04:50:03.867Z,7.5
2017-03-28T04:51:18.004Z,7.44
2017-03-28T04:52:32.076Z,7.29
2017-03-28T04:53:46.530Z,6.95
2017-03-28T04:55:02.795Z,6.8
2017-03-28T04:56:16.908Z,6.56
2017-03-28T04:57:31.202Z,6.46
2017-03-28T04:58:45.305Z,6.68
2017-03-28T04:59:59.226Z,6.74
2017-03-28T05:01:13.397Z,6.78
2017-03-28T05:02:27.401Z,6.77
2017-03-28T05:03:41.874Z,6.75
2017-03-28T05:04:56.198Z,6.75
2017-03-28T05:06:10.931Z,6.57
2017-03-28T05:07:24.898Z,6.46
2017-03-28T05:08:39.039Z,6.26
2017-03-28T05:09:53.353Z,6.25
2017-03-28T05:11:07.497Z,6.07
2017-03-28T05:12:21.599Z,5.99
2017-03-28T05:13:36.410Z,5.94
2017-03-28T05:14:51.070Z,5.98
2017-03-28T05:16:05.246Z,5.99
2017-03-28T05:17:19.184Z,5.99
2017-03-28T05:18:33.361Z,5.84
2017-03-28T05:19:47.655Z,5.83
2017-03-28T05:21:02.530Z,5.83
2017-03-28T05:22:16.506Z,5.62
2017-03-28T05:23:30.619Z,5.76
2017-03-28T05:24:44.757Z,5.7
2017-03-28T05:25:58.835Z,5.76
2017-03-28T05:27:13.583Z,5.88
2017-03-28T05:28:28.401Z,5.81
2017-03-28T05:29:42.977Z,5.83
2017-03-28T05:30:57.201Z,5.92
2017-03-28T05:32:11.310Z,5.84
2017-03-28T05:33:26.092Z,5.69
2017-03-28T05:34:40.909Z,5.55
2017-03-28T05:35:56.871Z,5.55
2017-03-28T05:37:10.922Z,5.69
2017-03-28T05:38:25.535Z,5.49
2017-03-28T05:39:39.667Z,5.65
2017-03-28T05:43:34.630Z,5.69
2017-03-28T05:44:48.943Z,5.56
2017-03-28T05:46:03.074Z,5.73
2017-03-28T05:47:17.213Z,5.74
2017-03-28T05:48:31.868Z,5.77
2017-03-28T05:49:47.134Z,5.8
2017-03-28T05:51:01.841Z,5.81
2017-03-28T05:52:16.145Z,5.91
2017-03-28T05:53:30.446Z,5.88
2017-03-28T05:54:44.713Z,5.74
2017-03-28T05:55:59.617Z,5.9
2017-03-28T05:57:13.554Z,5.92
2017-03-28T05:58:27.726Z,5.94
2017-03-28T05:59:42.427Z,5.98
2017-03-28T06:00:56.586Z,5.88
2017-03-28T06:02:10.521Z,5.99
2017-03-28T06:03:24.772Z,5.83
2017-03-28T06:04:39.188Z,6.09
2017-03-28T06:05:53.357Z,5.98
2017-03-28T06:07:07.297Z,6.1
2017-03-28T06:08:21.744Z,6.13
2017-03-28T06:09:36.079Z,6.25
2017-03-28T06:10:50.182Z,6.35
2017-03-28T06:12:04.737Z,6.31
2017-03-28T06:13:18.965Z,6.29
2017-03-28T06:14:35.224Z,6.29
2017-03-28T06:15:49.641Z,6.38
2017-03-28T06:17:03.948Z,6.46
2017-03-28T06:18:18.391Z,6.53
2017-03-28T06:19:32.514Z,6.6
2017-03-28T06:20:46.637Z,6.65
2017-03-28T06:22:01.026Z,6.64
2017-03-28T06:23:15.177Z,6.67
2017-03-28T06:24:29.131Z,6.71
2017-03-28T06:25:44.051Z,6.64
2017-03-28T06:26:58.035Z,6.77
2017-03-28T06:28:13.235Z,6.8
2017-03-28T06:29:27.590Z,6.82
2017-03-28T06:30:42.367Z,6.89
2017-03-28T06:31:56.916Z,6.96
2017-03-28T06:33:11.376Z,7.07
2017-03-28T06:34:26.409Z,7.13
2017-03-28T06:35:40.945Z,7.15
2017-03-28T06:36:55.338Z,7.14
2017-03-28T06:38:10.244Z,7.32
2017-03-28T06:39:24.627Z,7.44
2017-03-28T06:40:39.594Z,7.33
2017-03-28T06:42:00.243Z,7.62
2017-03-28T06:43:15.088Z,7.66
2017-03-28T06:44:30.120Z,7.84
2017-03-28T06:45:44.450Z,7.87
2017-03-28T06:46:58.429Z,7.84
2017-03-28T06:48:12.908Z,7.78
2017-03-28T06:49:27.918Z,7.88
2017-03-28T06:50:43.275Z,7.91
2017-03-28T06:51:58.753Z,8.05
2017-03-28T06:53:14.551Z,7.98
2017-03-28T06:54:29.617Z,7.95
2017-03-28T06:55:44.209Z,8.02
2017-03-28T06:56:58.229Z,8.09
2017-03-28T06:58:12.380Z,8.11
2017-03-28T06:59:26.812Z,8.32
2017-03-28T07:00:41.388Z,8.35
2017-03-28T07:01:55.425Z,8.34
2017-03-28T07:03:09.607Z,8.42
2017-03-28T07:04:24.517Z,8.44
2017-03-28T07:05:39.088Z,8.5
2017-03-28T07:06:53.846Z,8.57
2017-03-28T07:08:08.153Z,8.61
2017-03-28T07:09:22.125Z,8.75
2017-03-28T07:10:36.669Z,8.78
2017-03-28T07:11:51.107Z,8.75
2017-03-28T07:13:05.600Z,8.81
2017-03-28T07:14:19.627Z,8.9
2017-03-28T07:15:34.605Z,8.81
2017-03-28T07:16:49.310Z,8.87
2017-03-28T07:18:04.184Z,8.92
2017-03-28T07:19:18.977Z,9.08
2017-03-28T07:20:34.702Z,9.08
2017-03-28T07:21:49.157Z,9.13
2017-03-28T07:23:03.281Z,9.22
2017-03-28T07:24:17.963Z,9.19
2017-03-28T07:25:32.898Z,9.33
2017-03-28T07:26:47.738Z,9.37
2017-03-28T07:28:02.209Z,9.36
2017-03-28T07:29:16.180Z,9.48
2017-03-28T07:30:30.711Z,9.52
2017-03-28T07:31:47.141Z,9.64
2017-03-28T07:33:01.584Z,9.64
2017-03-28T07:34:15.545Z,9.67
2017-03-28T07:35:29.658Z,9.7
2017-03-28T07:36:44.098Z,9.82
2017-03-28T07:37:58.232Z,9.85
2017-03-28T07:39:12.174Z,9.99
2017-03-28T07:40:26.365Z,9.95
2017-03-28T07:41:40.646Z,10
2017-03-28T07:43:15.856Z,10.05
2017-03-28T07:44:29.916Z,10.03
2017-03-28T07:45:43.885Z,10.24
2017-03-28T07:46:58.398Z,10.27
2017-03-28T07:48:12.345Z,10.18
2017-03-28T07:49:35.671Z,10.28
2017-03-28T07:50:50.032Z,10.28
2017-03-28T07:52:04.245Z,10.38
2017-03-28T07:53:18.581Z,10.34
2017-03-28T07:54:32.777Z,10.45
2017-03-28T07:55:46.743Z,10.42
2017-03-28T07:57:12.990Z,10.49
2017-03-28T07:58:26.974Z,10.69
2017-03-28T07:59:41.421Z,10.64
2017-03-28T08:00:55.370Z,10.65
2017-03-28T08:02:09.580Z,10.75
2017-03-28T08:03:23.986Z,10.79
2017-03-28T08:04:38.903Z,10.79
2017-03-28T08:05:53.968Z,10.94
2017-03-28T08:07:08.323Z,10.92
2017-03-28T08:08:23.036Z,11
2017-03-28T08:09:37.884Z,11.04
2017-03-28T08:10:53.067Z,11.19
2017-03-28T08:12:08.007Z,11.22
2017-03-28T08:13:22.744Z,11.19
2017-03-28T08:14:37.786Z,11.27
2017-03-28T08:15:52.498Z,11.26
2017-03-28T08:17:08.129Z,11.26
2017-03-28T08:18:22.194Z,11.34
2017-03-28T08:19:36.797Z,11.45
2017-03-28T08:20:51.513Z,11.56
2017-03-28T08:22:06.038Z,11.59
2017-03-28T08:23:20.222Z,11.63
2017-03-28T08:24:34.396Z,11.76
2017-03-28T08:25:49.916Z,11.8
2017-03-28T08:27:04.064Z,11.88
2017-03-28T08:28:19.023Z,11.95
2017-03-28T08:29:33.288Z,12.05
2017-03-28T08:30:48.331Z,12.12
2017-03-28T08:32:02.921Z,12.1
2017-03-28T08:33:17.640Z,12.18
2017-03-28T08:34:32.235Z,12.18
2017-03-28T08:35:47.744Z,12.15
2017-03-28T08:37:02.458Z,12.23
2017-03-28T08:38:17.255Z,12.23
2017-03-28T08:39:32.144Z,12.33
2017-03-28T08:40:46.238Z,12.3
2017-03-28T08:42:00.788Z,12.37
2017-03-28T08:43:15.728Z,12.35
2017-03-28T08:44:30.336Z,12.53
2017-03-28T08:45:45.490Z,12.57
2017-03-28T08:47:21.424Z,12.72
2017-03-28T08:48:35.984Z,12.69
2017-03-28T08:49:53.538Z,12.78
2017-03-28T08:51:08.772Z,12.84
2017-03-28T08:52:22.741Z,12.91
2017-03-28T08:53:36.961Z,12.95
2017-03-28T08:54:51.266Z,13.03
2017-03-28T08:56:24.852Z,13.11
2017-03-28T08:57:39.329Z,13.12
2017-03-28T08:58:53.343Z,13.2
2017-03-28T09:00:07.795Z,13.16
2017-03-28T09:01:22.092Z,13.21
2017-03-28T09:02:36.263Z,13.27
2017-03-28T09:03:50.904Z,13.36
2017-03-28T09:05:05.164Z,13.42
2017-03-28T09:06:19.100Z,13.49
2017-03-28T09:07:33.601Z,13.57
2017-03-28T09:08:47.590Z,13.61
2017-03-28T09:10:01.970Z,13.73
2017-03-28T09:11:15.935Z,13.79
2017-03-28T09:12:30.055Z,13.76
2017-03-28T09:13:44.087Z,13.93
2017-03-28T09:14:58.580Z,13.94
2017-03-28T09:16:13.517Z,14
2017-03-28T09:17:27.972Z,14.08
2017-03-28T09:18:41.956Z,14.07
2017-03-28T09:19:56.476Z,14.18
2017-03-28T09:21:10.821Z,14.16
2017-03-28T09:22:25.382Z,14.34
2017-03-28T09:23:39.669Z,14.31
2017-03-28T09:25:15.035Z,14.3
2017-03-28T09:26:29.106Z,14.53
2017-03-28T09:27:44.101Z,14.52
2017-03-28T09:28:58.223Z,14.58
2017-03-28T09:30:12.260Z,14.55
2017-03-28T09:31:26.723Z,14.73
2017-03-28T09:32:41.021Z,14.74
2017-03-28T09:33:55.140Z,14.74
2017-03-28T09:35:09.179Z,14.74
2017-03-28T09:36:23.610Z,14.81
2017-03-28T09:37:38.260Z,14.92
2017-03-28T09:38:52.747Z,14.97
2017-03-28T09:40:06.790Z,14.96
2017-03-28T09:41:21.313Z,15.02
2017-03-28T09:42:35.282Z,15.1
2017-03-28T09:43:49.477Z,15.14
2017-03-28T09:45:03.457Z,15.26
2017-03-28T09:46:18.110Z,15.22
2017-03-28T09:47:32.191Z,15.26
2017-03-28T09:48:46.782Z,15.27
2017-03-28T09:50:01.149Z,15.29
2017-03-28T09:51:16.130Z,15.45
2017-03-28T09:52:31.252Z,15.47
2017-03-28T09:53:45.660Z,15.52
2017-03-28T09:55:00.020Z,15.52
2017-03-28T09:56:28.140Z,15.57
2017-03-28T09:57:42.832Z,15.55
2017-03-28T09:58:57.651Z,15.73
2017-03-28T10:00:13.452Z,15.78
2017-03-28T10:01:28.251Z,15.81
2017-03-28T10:02:43.274Z,15.84
2017-03-28T10:03:58.561Z,15.85
2017-03-28T10:05:13.281Z,15.78
2017-03-28T10:06:27.913Z,15.81
2017-03-28T10:07:45.213Z,15.92
2017-03-28T10:09:00.031Z,15.83
2017-03-28T10:10:15.134Z,15.91
2017-03-28T10:11:30.652Z,15.91
2017-03-28T10:12:45.345Z,15.94
2017-03-28T10:14:00.186Z,15.99
2017-03-28T10:15:15.848Z,16.09
2017-03-28T10:16:30.875Z,16.08
2017-03-28T10:17:45.641Z,16.17
2017-03-28T10:18:59.790Z,16.24
2017-03-28T10:20:16.774Z,16.28
2017-03-28T10:21:31.243Z,16.32
2017-03-28T10:22:45.554Z,16.32
2017-03-28T10:23:59.899Z,16.36
2017-03-28T10:25:13.938Z,16.39
2017-03-28T10:26:28.477Z,16.34
2017-03-28T10:27:42.817Z,16.5
2017-03-28T10:28:57.942Z,16.44
2017-03-28T10:30:12.315Z,16.44
2017-03-28T10:31:27.277Z,16.46
2017-03-28T10:32:41.269Z,16.61
2017-03-28T10:33:55.709Z,16.66
2017-03-28T10:35:10.029Z,16.68
2017-03-28T10:36:24.228Z,16.76
2017-03-28T10:37:38.702Z,16.72
2017-03-28T10:38:53.152Z,16.83
2017-03-28T10:40:07.755Z,16.92
2017-03-28T10:41:22.358Z,16.89
2017-03-28T10:42:37.082Z,17.01
2017-03-28T10:43:51.454Z,17.02
2017-03-28T10:45:06.551Z,16.98
2017-03-28T10:46:21.009Z,17.09
2017-03-28T10:47:35.043Z,17.17
2017-03-28T10:48:49.506Z,17.17
2017-03-28T10:50:03.865Z,17.2
2017-03-28T10:51:18.434Z,17.3
2017-03-28T10:52:33.100Z,17.38
2017-03-28T10:53:47.387Z,17.44
2017-03-28T10:55:02.516Z,17.46
2017-03-28T10:56:18.373Z,17.47
2017-03-28T10:57:39.737Z,17.47
2017-03-28T10:59:01.950Z,17.53
2017-03-28T11:00:24.247Z,17.68
2017-03-28T11:02:03.193Z,17.56
2017-03-28T11:03:40.813Z,17.57
2017-03-28T11:05:03.819Z,17.63
2017-03-28T11:06:28.165Z,17.68
2017-03-28T11:07:51.570Z,17.71
2017-03-28T11:09:09.464Z,17.9
2017-03-28T11:10:24.886Z,17.91
2017-03-28T11:11:39.588Z,17.86
2017-03-28T11:12:55.177Z,17.98
2017-03-28T11:14:09.573Z,17.95
2017-03-28T11:15:24.477Z,18.03
2017-03-28T11:16:38.568Z,18.08
2017-03-28T11:17:53.527Z,18.12
2017-03-28T11:19:07.939Z,18.19
2017-03-28T11:20:22.508Z,18.16
2017-03-28T11:21:37.180Z,18.21
2017-03-28T11:22:51.311Z,18.21
2017-03-28T11:24:05.634Z,18.26
2017-03-28T11:25:19.797Z,18.24
2017-03-28T11:26:36.024Z,18.31
2017-03-28T11:27:51.094Z,18.36
2017-03-28T11:29:05.869Z,18.34
2017-03-28T11:30:20.005Z,18.45
2017-03-28T11:31:33.979Z,18.51
2017-03-28T11:32:48.465Z,18.58
2017-03-28T11:34:02.905Z,18.52
2017-03-28T11:35:17.478Z,18.55
2017-03-28T11:36:31.791Z,18.58
2017-03-28T11:37:45.991Z,18.67
2017-03-28T11:39:00.663Z,18.71
2017-03-28T11:40:16.170Z,18.68
2017-03-28T11:41:30.199Z,18.67
2017-03-28T11:42:44.373Z,18.79
2017-03-28T11:44:01.386Z,18.83
2017-03-28T11:45:15.600Z,18.86
2017-03-28T11:46:29.563Z,18.91
2017-03-28T11:47:44.032Z,18.86
2017-03-28T11:48:58.704Z,18.94
2017-03-28T11:50:13.221Z,18.97
2017-03-28T11:51:27.173Z,19.05
2017-03-28T11:52:42.009Z,19.05
2017-03-28T11:53:56.301Z,19.01
2017-03-28T11:55:10.541Z,19.04
2017-03-28T11:56:24.843Z,19.11
2017-03-28T11:57:39.308Z,19.15
2017-03-28T11:58:54.169Z,19.27
2017-03-28T12:00:08.792Z,19.22
2017-03-28T12:01:23.199Z,19.24
2017-03-28T12:02:37.431Z,19.37
2017-03-28T12:03:51.395Z,19.29
2017-03-28T12:05:06.276Z,19.32
2017-03-28T12:06:20.289Z,19.32
2017-03-28T12:07:34.408Z,19.32
2017-03-28T12:08:48.731Z,19.35
2017-03-28T12:10:03.282Z,19.47
2017-03-28T12:11:17.653Z,19.49
2017-03-28T12:12:31.762Z,19.63
2017-03-28T12:13:46.120Z,19.63
2017-03-28T12:15:00.292Z,19.67
2017-03-28T12:16:14.332Z,19.67
2017-03-28T12:17:28.786Z,19.66
2017-03-28T12:18:43.005Z,19.71
2017-03-28T12:19:57.496Z,19.7
2017-03-28T12:21:12.276Z,19.74
2017-03-28T12:22:26.397Z,19.75
2017-03-28T12:23:40.642Z,19.81
2017-03-28T12:24:55.668Z,19.78
2017-03-28T12:26:09.762Z,19.92
2017-03-28T12:27:23.890Z,20.02
2017-03-28T12:28:37.862Z,20.02
2017-03-28T12:29:52.692Z,20.11
2017-03-28T12:31:07.135Z,20.07
2017-03-28T12:32:21.260Z,20.07
2017-03-28T12:33:35.943Z,20.03
2017-03-28T12:34:50.404Z,20.08
2017-03-28T12:36:06.013Z,20.15
2017-03-28T12:37:20.492Z,20.15
2017-03-28T12:38:34.844Z,20.08
2017-03-28T12:39:48.991Z,20.17
2017-03-28T12:41:03.730Z,20.18
2017-03-28T12:42:19.050Z,20.29
2017-03-28T12:43:36.731Z,20.34
2017-03-28T12:44:50.930Z,20.37
2017-03-28T12:46:05.533Z,20.4
2017-03-28T12:47:20.664Z,20.37
2017-03-28T12:48:35.824Z,20.42
2017-03-28T12:49:50.342Z,20.37
2017-03-28T12:51:04.323Z,20.39
2017-03-28T12:52:18.861Z,20.36
2017-03-28T12:53:32.838Z,20.48
2017-03-28T12:54:47.685Z,20.44
2017-03-28T12:56:02.415Z,20.46
2017-03-28T12:57:17.091Z,20.5
2017-03-28T12:58:31.421Z,20.56
2017-03-28T12:59:45.938Z,20.58
2017-03-28T13:01:01.485Z,20.58
2017-03-28T13:02:16.406Z,20.6
2017-03-28T13:03:30.725Z,20.66
2017-03-28T13:04:45.293Z,20.68
2017-03-28T13:05:59.995Z,20.78
2017-03-28T13:07:15.220Z,20.89
2017-03-28T13:08:29.353Z,20.86
2017-03-28T13:09:44.014Z,20.85
2017-03-28T13:10:59.377Z,20.83
2017-03-28T13:12:14.304Z,20.86
2017-03-28T13:13:28.791Z,20.86
2017-03-28T13:14:42.965Z,20.8
2017-03-28T13:15:57.648Z,20.9
2017-03-28T13:17:12.705Z,20.86
2017-03-28T13:18:33.313Z,20.89
2017-03-28T13:19:48.125Z,20.96
2017-03-28T13:21:02.489Z,20.92
2017-03-28T13:22:17.376Z,20.95
2017-03-28T13:23:32.071Z,21.04
2017-03-28T13:24:47.079Z,20.96
2017-03-28T13:26:01.232Z,20.98
2017-03-28T13:27:15.916Z,21
2017-03-28T13:28:30.278Z,21.08
2017-03-28T13:29:44.473Z,21.14
2017-03-28T13:30:59.690Z,21.15
2017-03-28T13:32:16.031Z,21.25
2017-03-28T13:33:30.670Z,21.25
2017-03-28T13:34:46.279Z,21.22
2017-03-28T13:36:00.951Z,21.37
2017-03-28T13:37:16.296Z,21.38
2017-03-28T13:38:31.359Z,21.3
2017-03-28T13:39:46.541Z,21.29
2017-03-28T13:41:00.938Z,21.22
2017-03-28T13:42:15.090Z,21.17
2017-03-28T13:43:29.470Z,21.22
2017-03-28T13:44:44.991Z,21.22
2017-03-28T13:46:00.557Z,21.29
2017-03-28T13:47:15.734Z,21.37
2017-03-28T13:48:30.684Z,21.33
2017-03-28T13:49:47.154Z,21.4
2017-03-28T13:51:02.666Z,21.35
2017-03-28T13:52:39.140Z,21.41
2017-03-28T13:54:46.106Z,21.37
2017-03-28T13:56:11.043Z,21.38
2017-03-28T13:57:27.127Z,21.4
2017-03-28T13:58:43.033Z,21.48
2017-03-28T13:59:58.256Z,21.62
2017-03-28T14:01:14.833Z,21.53
2017-03-28T14:02:33.343Z,21.58
2017-03-28T14:03:49.857Z,21.53
2017-03-28T14:05:04.579Z,21.6
2017-03-28T14:06:20.877Z,21.6
2017-03-28T14:07:36.092Z,21.53
2017-03-28T14:08:52.912Z,21.58
2017-03-28T14:10:07.933Z,21.54
2017-03-28T14:11:25.074Z,21.5
2017-03-28T14:12:41.850Z,21.58
2017-03-28T14:13:57.768Z,21.62
2017-03-28T14:15:12.454Z,21.54
2017-03-28T14:16:29.534Z,21.51
2017-03-28T14:17:45.670Z,21.54
2017-03-28T14:19:01.081Z,21.58
2017-03-28T14:20:16.300Z,21.68
2017-03-28T14:21:55.386Z,21.63
2017-03-28T14:23:10.842Z,21.74
2017-03-28T14:24:25.659Z,21.66
2017-03-28T14:25:40.872Z,21.63
2017-03-28T14:26:55.213Z,21.77
2017-03-28T14:28:10.408Z,21.72
2017-03-28T14:29:27.583Z,21.77
2017-03-28T14:30:43.527Z,21.68
2017-03-28T14:31:59.734Z,21.7
2017-03-28T14:33:15.193Z,21.66
2017-03-28T14:34:31.642Z,21.65
2017-03-28T14:35:47.550Z,21.68
2017-03-28T14:37:03.229Z,21.7
2017-03-28T14:38:20.188Z,21.77
2017-03-28T14:39:35.101Z,21.85
2017-03-28T14:41:04.863Z,21.89
2017-03-28T14:42:20.453Z,21.96
2017-03-28T14:43:35.363Z,22.01
2017-03-28T14:44:49.772Z,21.94
2017-03-28T14:46:05.689Z,21.96
2017-03-28T14:47:21.388Z,21.89
2017-03-28T14:48:35.901Z,21.91
2017-03-28T14:49:50.613Z,21.88
2017-03-28T14:51:05.844Z,21.91
2017-03-28T14:52:20.368Z,21.81
2017-03-28T14:53:35.901Z,21.83
2017-03-28T14:54:52.279Z,21.85
2017-03-28T14:56:07.121Z,21.85
2017-03-28T14:57:21.378Z,21.84
2017-03-28T14:58:36.681Z,21.84
2017-03-28T14:59:51.112Z,21.85
2017-03-28T15:01:06.112Z,21.84
2017-03-28T15:02:20.681Z,21.84
2017-03-28T15:03:36.592Z,21.85
2017-03-28T15:04:51.761Z,21.94
2017-03-28T15:06:06.521Z,22
2017-03-28T15:07:21.503Z,21.94
2017-03-28T15:08:37.344Z,21.96
2017-03-28T15:09:52.281Z,21.89
2017-03-28T15:11:06.961Z,21.88
2017-03-28T15:12:21.748Z,21.84
2017-03-28T15:13:36.846Z,21.84
2017-03-28T15:14:51.427Z,21.77
2017-03-28T15:16:06.550Z,21.74
2017-03-28T15:17:22.014Z,21.58
2017-03-28T15:18:36.817Z,21.54
2017-03-28T15:19:51.745Z,21.53
2017-03-28T15:21:16.080Z,21.53
2017-03-28T15:22:30.679Z,21.63
2017-03-28T15:23:45.910Z,21.58
2017-03-28T15:25:00.991Z,21.56
2017-03-28T15:26:15.509Z,21.66
2017-03-28T15:27:30.141Z,21.56
2017-03-28T15:28:44.189Z,21.6
2017-03-28T15:29:58.593Z,21.54
2017-03-28T15:31:12.568Z,21.5
2017-03-28T15:32:27.389Z,21.54
2017-03-28T15:33:41.771Z,21.53
2017-03-28T15:34:56.572Z,21.62
2017-03-28T15:36:10.928Z,21.68
2017-03-28T15:37:26.852Z,21.66
2017-03-28T15:38:41.253Z,21.75
2017-03-28T15:39:56.077Z,21.78
2017-03-28T15:41:11.150Z,21.78
2017-03-28T15:42:25.939Z,21.85
2017-03-28T15:43:40.416Z,21.85
2017-03-28T15:44:55.741Z,21.99
2017-03-28T15:46:09.702Z,21.92
2017-03-28T15:47:23.860Z,22
2017-03-28T15:48:38.963Z,21.94
2017-03-28T15:49:54.184Z,21.92
2017-03-28T15:51:08.641Z,22.03
2017-03-28T15:52:22.761Z,21.99
2017-03-28T15:53:37.470Z,21.99
2017-03-28T15:54:52.755Z,21.88
2017-03-28T15:56:06.825Z,21.97
2017-03-28T15:57:22.001Z,21.81
2017-03-28T15:58:36.685Z,21.88
2017-03-28T15:59:51.210Z,21.77
2017-03-28T16:01:07.223Z,21.77
2017-03-28T16:02:21.357Z,21.69
2017-03-28T16:03:36.339Z,21.58
2017-03-28T16:05:20.248Z,21.5
2017-03-28T16:06:35.202Z,21.56
2017-03-28T16:07:50.489Z,21.66
2017-03-28T16:09:07.016Z,21.5
2017-03-28T16:10:22.151Z,21.44
2017-03-28T16:11:37.493Z,21.5
2017-03-28T16:12:53.527Z,21.47
2017-03-28T16:14:09.320Z,21.37
2017-03-28T16:15:24.597Z,21.33
2017-03-28T16:16:39.828Z,21.28
2017-03-28T16:17:55.532Z,21.23
2017-03-28T16:19:10.689Z,21.22
2017-03-28T16:20:26.629Z,21.15
2017-03-28T16:21:41.831Z,21.19
2017-03-28T16:22:55.902Z,21.17
2017-03-28T16:24:10.314Z,21.11
2017-03-28T16:25:25.540Z,21.15
2017-03-28T16:26:40.169Z,21.11
2017-03-28T16:27:55.214Z,21.13
2017-03-28T16:32:54.857Z,21.29
2017-03-28T16:34:11.136Z,21.37
2017-03-28T16:35:45.388Z,21.41